Kezdőlap
METAR-TAF:

METAR-TAF

Repülőterek :

Dakar, Szenegál

földrajzi szélesség: 14-44N, földrajzi hosszúság: 017-30W, magasság: 27 m

Jelenlegi meteorológiai megfigyelések

A jelentés 1 órával és 31 perccel ezelõtt készült, 02:00 UTC
Északi szél 6 kt
Hőmérséklet 23°C
Páratartalom 73%
Légköri nyomás 1012 hPa
Látótávolság: 4800 m
kiterjedt por,

METAR: GOOY 220200Z 36006KT 4800 DU NSC 23/18 Q1012

Idő: 03:31 (03:31 UTC)

Előrejelzés

A jelentés 4 órával és 31 perccel ezelõtt készült, 23:00 UTC
Az előrejelzés 22-én 00 óra UTC és 23-én 06 óra UTC között érvényes
Észak-északkeleti szél 10 kt
Látótávolság: 6000 m
22-én 10 óra UTC és 22-én 12 óra UTC között fokozatosan kialakuló
Látótávolság: 3000 m
kiterjedt por,

TAF: GOOY 212300Z 2200/2306 02010KT 6000 NSC BECMG 2210/2212 3000 DU

Meteorológiai megfigyelések és előrejelzések több, mint 4000 repülőtéren (METAR és TAF jelentéseket).

A térképen piros és sárga pontok jelzik az elérhető meteorológiai állomásokat.

Mozgassa az egeret a pont fölött, hogy megjelenjen az állomás neve.

Azután kattintson az időjárási megfigyelések és előrejelzések megtekintéséhez.

A térkép megváltoztatása: kattintson a fekete keresztel jelölt zöld gombra ráközelítéshez, a vonallal jelölt zöld gombra távolításhoz, vagy a zöld nyilakra a szomszédos térképek eléréséhez.


METAR-TAF: